Weather observations for the past three days for
La Paz International Airport
| Date | Time (mst) | Wind (mph) | Vis. (mi.) | Weather | Sky Cond. | Temperature (ºF) | Relative Humidity | Wind Chill (°F) | Heat Index (°F) | Pressure | Precipitation (in) | ||||||
|---|---|---|---|---|---|---|---|---|---|---|---|---|---|---|---|---|---|
| Air | Dwpt | 6 hour | altimeter (in) | sea level (mb) | 1 hr | 3 hr | 6 hr | ||||||||||
| Max. | Min. | ||||||||||||||||
| 04 | 09:40 | S 9 | 10.00 | Mostly Cloudy | BKN200 | 75.2 | 55.4 | 50% | 78 | 30.01 | 0.0 | ||||||
| 04 | 08:44 | S 13 | 10.00 | Mostly Cloudy | BKN200 | 68 | 55.4 | 64% | 30.02 | 0.0 | |||||||
| 04 | 07:41 | S 12 | 10.00 | Mostly Cloudy | FEW100 BKN200 | 64.4 | 55.4 | 73% | 30.01 | 1015.9 | |||||||
| 04 | 06:46 | S 10 | 10.00 | Mostly Cloudy | FEW100 BKN200 | 60.8 | 55.4 | 83% | 30 | 0.0 | |||||||
| 04 | 05:40 | S 10 | 10.00 | Partly Cloudy | SCT200 | 59 | 55.4 | 88% | 29.99 | 0.0 | |||||||
| 03 | 22:40 | S 9 | 10.00 | Clear | SKC | 66.2 | 57.2 | 73% | 30.02 | 1016.1 | |||||||
| 03 | 21:40 | S 10 | 10.00 | Clear | SKC | 68 | 57.2 | 69% | 30.02 | 0.0 | |||||||
| 03 | 20:40 | S 12 | 10.00 | Clear | SKC | 69.8 | 57.2 | 64% | 30.01 | 0.0 | |||||||
| 03 | 19:40 | S 13 | 10.00 | Partly Cloudy | SCT200 | 73.4 | 57.2 | 57% | 29.98 | 1014.7 | |||||||
| 03 | 18:40 | SW 12 | 10.00 | Mostly Cloudy | BKN200 | 78.8 | 53.6 | 42% | 79 | 29.95 | 0.0 | ||||||
| 03 | 17:40 | S 8 | 10.00 | Partly Cloudy | SCT200 | 84.2 | 51.8 | 33% | 82 | 29.93 | 0.0 | ||||||
| 03 | 16:40 | SW 8 | 10.00 | Mostly Cloudy | BKN200 | 86 | 50 | 29% | 84 | 29.91 | 1012.5 | ||||||
| 03 | 15:41 | SW 17 | 10.00 | Mostly Cloudy | BKN200 | 89.6 | 51.8 | 27% | 87 | 29.91 | 0.0 | ||||||
| 03 | 14:40 | SW 15 | 10.00 | Mostly Cloudy | BKN200 | 93.2 | 50 | 23% | 90 | 29.91 | 0.0 | ||||||
| 03 | 13:40 | SW 7 | 10.00 | Mostly Cloudy | BKN200 | 91.4 | 51.8 | 26% | 89 | 29.91 | 1012.4 | ||||||
| 03 | 12:41 | S 7 | 10.00 | Mostly Cloudy | BKN200 | 89.6 | 51.8 | 27% | 87 | 29.93 | 0.0 | ||||||
| 03 | 11:42 | W 3 | 10.00 | A Few Clouds | FEW200 | 89.6 | 48.2 | 24% | 86 | 29.96 | 0.0 | ||||||
| 03 | 10:40 | S 3 | 10.00 | Partly Cloudy | SCT200 | 86 | 46.4 | 25% | 83 | 29.97 | 1014.7 | ||||||
| 03 | 09:44 | S 8 | 10.00 | Partly Cloudy | SCT200 | 82.4 | 44.6 | 26% | 81 | 29.98 | 0.0 | ||||||
| 03 | 08:41 | SW 9 | 10.00 | A Few Clouds | FEW200 | 75.2 | 51.8 | 44% | 78 | 29.98 | 0.0 | ||||||
| 03 | 07:40 | S 12 | 10.00 | A Few Clouds | FEW200 | 66.2 | 57.2 | 73% | 29.98 | 1014.5 | |||||||
| 03 | 06:48 | S 9 | 10.00 | A Few Clouds | FEW200 | 60.8 | 55.4 | 83% | 29.97 | 0.0 | |||||||
| 03 | 05:40 | S 10 | 10.00 | A Few Clouds | FEW200 | 59 | 55.4 | 88% | 29.94 | 0.0 | |||||||
| 02 | 22:40 | SE 8 | 8.00 | A Few Clouds | FEW200 | 69.8 | 57.2 | 64% | 29.96 | 1014.1 | |||||||
| 02 | 21:40 | S 10 | 8.00 | Partly Cloudy | SCT200 | 71.6 | 59 | 65% | 29.94 | 0.0 | |||||||
| 02 | 20:40 | S 13 | 8.00 | A Few Clouds | FEW200 | 73.4 | 59 | 61% | 29.92 | 0.0 | |||||||
| 02 | 19:40 | S 13 | 8.00 | Partly Cloudy | SCT200 | 78.8 | 57.2 | 48% | 80 | 29.88 | 1011.5 | ||||||
| 02 | 18:40 | SW 10 | 10.00 | Partly Cloudy | SCT200 | 84.2 | 57.2 | 40% | 83 | 29.87 | 0.0 | ||||||
| 02 | 17:40 | SW 12 | 10.00 | Partly Cloudy | SCT200 | 89.6 | 50 | 26% | 87 | 29.84 | 0.0 | ||||||
| 02 | 16:40 | N 7 | 10.00 | A Few Clouds | FEW200 | 91.4 | 50 | 24% | 88 | 29.83 | 1009.7 | ||||||
| 02 | 15:41 | W 7 | 10.00 | A Few Clouds | FEW200 | 93.2 | 50 | 23% | 90 | 29.83 | 0.0 | ||||||
| 02 | 14:40 | N 9 | 10.00 | Partly Cloudy | SCT200 | 91.4 | 50 | 24% | 88 | 29.84 | 0.0 | ||||||
| 02 | 13:45 | N 7 | 10.00 | Clear | SKC | 93.2 | 46.4 | 20% | 90 | 29.86 | 1010.8 | ||||||
| 02 | 12:40 | W 6 | 10.00 | Clear | SKC | 93.2 | 42.8 | 17% | 89 | 29.88 | 0.0 | ||||||
| 02 | 11:40 | W 5 | 10.00 | Clear | SKC | 91.4 | 42.8 | 18% | 88 | 29.91 | 0.0 | ||||||
| 02 | 10:40 | Calm | 10.00 | Clear | SKC | 87.8 | 39.2 | 18% | 84 | 29.93 | 1013.0 | ||||||
| 02 | 09:40 | S 10 | 10.00 | Clear | SKC | 82.4 | 48.2 | 30% | 81 | 29.94 | 0.0 | ||||||
| 02 | 08:40 | S 6 | 10.00 | Clear | SKC | 77 | 55.4 | 47% | 79 | 29.93 | 0.0 | ||||||
| 02 | 07:51 | S 12 | 10.00 | Clear | SKC | 69.8 | 57.2 | 64% | 29.92 | 1012.7 | |||||||
| 02 | 06:40 | S 12 | 10.00 | A Few Clouds | FEW200 | 60.8 | 57.2 | 88% | 29.91 | 0.0 | |||||||
| 02 | 06:00 | S 9 | 10.00 | A Few Clouds | FEW200 | 59 | 55.4 | 88% | 29.89 | 0.0 | |||||||
| 01 | 22:41 | S 10 | 8.00 | A Few Clouds | FEW200 | 68 | 57.2 | 69% | 29.92 | 1012.7 | |||||||
| 01 | 21:42 | S 9 | 8.00 | A Few Clouds | FEW200 | 71.6 | 57.2 | 61% | 29.91 | 0.0 | |||||||
| 01 | 20:40 | S 13 | 8.00 | A Few Clouds | FEW200 | 73.4 | 55.4 | 53% | 29.89 | 0.0 | |||||||
| 01 | 19:40 | SE 10 | 10.00 | Clear | SKC | 80.6 | 57.2 | 45% | 81 | 29.86 | 1010.7 | ||||||
| 01 | 18:40 | NW 7 | 10.00 | Clear | SKC | 82.4 | 66.2 | 58% | 85 | 29.83 | 0.0 | ||||||
| 01 | 18:01 | NW 5 | 10.00 | Clear | SKC | 86 | 64.4 | 49% | 87 | 29.82 | 0.0 | ||||||
| 01 | 16:40 | NW 10 | 10.00 | Clear | SKC | 89.6 | 51.8 | 27% | 87 | 29.81 | 1008.9 | ||||||
| 01 | 15:40 | N 9 | 10.00 | Clear | SKC | 91.4 | 41 | 17% | 87 | 29.81 | 0.0 | ||||||
| 01 | 14:40 | N 14 | 10.00 | Clear | SKC | 91.4 | 37.4 | 15% | 87 | 29.82 | 0.0 | ||||||
| 01 | 13:40 | N 12 | 10.00 | Clear | SKC | 89.6 | 39.2 | 17% | 86 | 29.85 | 1010.5 | ||||||
| 01 | 12:40 | N 7 | 10.00 | Clear | SKC | 89.6 | 46.4 | 22% | 86 | 29.87 | 0.0 | ||||||
| 01 | 11:40 | NW 12 | 10.00 | Clear | SKC | 86 | 51.8 | 31% | 84 | 29.89 | 0.0 | ||||||
| 01 | 10:40 | N 12 | 10.00 | Clear | SKC | 84.2 | 51.8 | 33% | 82 | 29.91 | 1012.5 | ||||||
| Date | Time (mst) | Wind (mph) | Vis. (mi.) | Weather | Sky Cond. | Air | Dwpt | Max. | Min. | Relative Humidity | Wind Chill (°F) | Heat Index (°F) | altimeter (in) | sea level (mb) | 1 hr | 3 hr | 6 hr |
| 6 hour | |||||||||||||||||
| Temperature (ºF) | Pressure | Precipitation (in) | |||||||||||||||